Aeropuerto de Asturias

latitud = 43° 34' 01''N | longitud = 006° 02' 39''W
127 metros sobre el nivel del mar | datos mensuales

Fecha, hora, temperatura, viento dirección y velocidad, humedad y presión.

  • 16-08-2018 02:00:00 | 19.60°C | Sudeste |6.00 km/h | 93.00% | 1003.20 hPa
  • 16-08-2018 01:00:00 | 19.40°C | Este |5.00 km/h | 92.00% | 1002.90 hPa
  • 16-08-2018 00:00:00 | 19.10°C | Este |10.00 km/h | 93.00% | 1002.70 hPa
  • 15-08-2018 23:00:00 | 19.10°C | Este |13.00 km/h | 91.00% | 1002.60 hPa
  • 15-08-2018 22:00:00 | 19.60°C | Este |15.00 km/h | 89.00% | 1002.20 hPa
  • 15-08-2018 21:00:00 | 21.20°C | Este |10.00 km/h | 78.00% | 1002.00 hPa
  • 15-08-2018 20:00:00 | 22.40°C | Este |14.00 km/h | 74.00% | 1002.00 hPa
  • 15-08-2018 19:00:00 | 23.00°C | Este |15.00 km/h | 72.00% | 1002.40 hPa
  • 15-08-2018 18:00:00 | 23.50°C | Este |15.00 km/h | 71.00% | 1002.60 hPa
  • 15-08-2018 17:00:00 | 24.10°C | Este |18.00 km/h | 66.00% | 1002.90 hPa
  • 15-08-2018 16:00:00 | 24.70°C | Este |19.00 km/h | 61.00% | 1003.10 hPa
  • 15-08-2018 15:00:00 | 25.00°C | Este |23.00 km/h | 59.00% | 1003.50 hPa
  • 15-08-2018 14:00:00 | 24.70°C | Este |21.00 km/h | 61.00% | 1003.70 hPa
  • 15-08-2018 13:00:00 | 24.40°C | Este |25.00 km/h | 61.00% | 1003.90 hPa
  • 15-08-2018 12:00:00 | 23.70°C | Este |22.00 km/h | 61.00% | 1003.90 hPa
  • 15-08-2018 11:00:00 | 22.50°C | Sudeste |19.00 km/h | 65.00% | 1004.20 hPa
  • 15-08-2018 10:00:00 | 20.50°C | Este |18.00 km/h | 74.00% | 1004.50 hPa
  • 15-08-2018 09:00:00 | 18.00°C | Sudeste |15.00 km/h | 86.00% | 1004.60 hPa
  • 15-08-2018 08:00:00 | 14.90°C | Sudeste |15.00 km/h | 95.00% | 1004.70 hPa
  • 15-08-2018 07:00:00 | 14.50°C | Sudeste |13.00 km/h | 96.00% | 1004.90 hPa
  • 15-08-2018 06:00:00 | 14.60°C | Sudeste |13.00 km/h | 95.00% | 1005.30 hPa
  • 15-08-2018 05:00:00 | 15.30°C | Sudeste |10.00 km/h | 92.00% | 1005.60 hPa
  • 15-08-2018 04:00:00 | 15.50°C | Sudeste |15.00 km/h | 95.00% | 1006.20 hPa
  • 15-08-2018 03:00:00 | 15.80°C | Sudeste |14.00 km/h | 95.00% | 1006.80 hPa